Time;durP1;ratioP1;P1;durP2;ratioP2;P2;SDS_P1;SDS_P2;PMS_P1;PMS_P2;Temp;Humidity;BMP_temperature;BMP_pressure;BME280_temperature;BME280_humidity;BME280_pressure;Samples;Min_cycle;Max_cycle;Signal;HPM_P1;HPM_P2
2022/09/05 00:02:37;;;;;;;8.07;6.50;;;;;;;;;;4974625;28;20951;-51
2022/09/05 00:05:27;;;;;;;7.23;6.23;;;;;;;;;;4972781;28;20428;-51
2022/09/05 00:07:53;;;;;;;6.53;5.43;;;;;;;;;;4973926;28;20423;-51
2022/09/05 00:10:22;;;;;;;10.57;5.80;;;;;;;;;;4973766;28;20412;-51
2022/09/05 00:12:50;;;;;;;6.50;5.90;;;;;;;;;;4973192;28;20496;-51
2022/09/05 00:15:31;;;;;;;8.90;7.20;;;;;;;;;;4971995;28;20421;-51
2022/09/05 00:18:12;;;;;;;7.57;6.83;;;;;;;;;;4972697;28;20505;-51
2022/09/05 00:20:51;;;;;;;8.53;7.73;;;;;;;;;;4973781;28;20380;-51
2022/09/05 00:23:20;;;;;;;8.17;7.10;;;;;;;;;;4974594;28;20397;-51
2022/09/05 00:26:01;;;;;;;7.23;6.60;;;;;;;;;;4974585;28;20881;-51
2022/09/05 00:28:40;;;;;;;7.73;6.93;;;;;;;;;;4974244;28;20429;-51
2022/09/05 00:31:06;;;;;;;6.30;5.70;;;;;;;;;;4974386;28;20456;-51
2022/09/05 00:33:55;;;;;;;6.47;5.97;;;;;;;;;;4974242;28;20413;-50
2022/09/05 00:36:21;;;;;;;8.50;7.47;;;;;;;;;;4974190;28;20633;-51
2022/09/05 00:38:52;;;;;;;7.20;6.50;;;;;;;;;;4974087;28;20957;-51
2022/09/05 00:41:18;;;;;;;7.20;6.10;;;;;;;;;;4974181;28;20496;-50
2022/09/05 00:43:47;;;;;;;7.60;6.80;;;;;;;;;;4972368;28;20413;-51
2022/09/05 00:46:18;;;;;;;7.97;7.37;;;;;;;;;;4973282;28;20436;-52
2022/09/05 00:48:44;;;;;;;7.77;7.07;;;;;;;;;;4973830;28;20954;-51
2022/09/05 00:51:10;;;;;;;8.57;7.00;;;;;;;;;;4973995;28;21027;-51
2022/09/05 00:53:40;;;;;;;8.50;6.87;;;;;;;;;;4973885;28;20460;-51
2022/09/05 00:56:21;;;;;;;8.13;7.33;;;;;;;;;;4973748;28;20492;-51
2022/09/05 00:58:54;;;;;;;7.90;7.10;;;;;;;;;;4973218;28;20401;-50
2022/09/05 01:01:29;;;;;;;8.23;7.07;;;;;;;;;;4973522;28;20431;-52
2022/09/05 01:04:01;;;;;;;10.67;6.60;;;;;;;;;;4973308;28;20499;-51
2022/09/05 01:06:33;;;;;;;7.63;6.93;;;;;;;;;;4973269;28;20427;-51
2022/09/05 01:09:17;;;;;;;8.10;7.33;;;;;;;;;;4973590;28;20401;-50
2022/09/05 01:11:52;;;;;;;7.27;6.67;;;;;;;;;;4973423;28;20451;-51
2022/09/05 01:14:33;;;;;;;7.43;6.73;;;;;;;;;;4972317;28;20482;-51
2022/09/05 01:16:59;;;;;;;6.63;6.13;;;;;;;;;;4973154;28;20433;-50
2022/09/05 01:19:28;;;;;;;7.30;6.60;;;;;;;;;;4973455;28;20419;-50
2022/09/05 01:22:12;;;;;;;7.83;7.10;;;;;;;;;;4973489;28;20397;-51
2022/09/05 01:24:57;;;;;;;7.40;6.80;;;;;;;;;;4974007;28;20412;-52
2022/09/05 01:27:41;;;;;;;7.60;7.00;;;;;;;;;;4973342;28;20439;-50
2022/09/05 01:30:09;;;;;;;7.30;6.60;;;;;;;;;;4973046;28;20396;-50
2022/09/05 01:32:38;;;;;;;10.20;6.80;;;;;;;;;;4973738;28;20460;-50
2022/09/05 01:35:24;;;;;;;7.20;6.50;;;;;;;;;;4973162;28;20437;-50
2022/09/05 01:37:55;;;;;;;8.33;7.53;;;;;;;;;;4973118;28;20435;-50
2022/09/05 01:40:24;;;;;;;11.57;6.70;;;;;;;;;;4973039;28;20408;-50
2022/09/05 01:42:57;;;;;;;9.10;6.87;;;;;;;;;;4973270;28;20411;-50
2022/09/05 01:45:26;;;;;;;7.00;6.30;;;;;;;;;;4972848;28;20794;-50
2022/09/05 01:48:00;;;;;;;7.87;7.07;;;;;;;;;;4972956;28;20413;-53
2022/09/05 01:50:34;;;;;;;8.20;7.50;;;;;;;;;;4972794;28;20391;-49
2022/09/05 01:53:00;;;;;;;9.80;6.30;;;;;;;;;;4973193;28;20412;-50
2022/09/05 01:55:45;;;;;;;7.80;6.60;;;;;;;;;;4971759;28;20403;-53
2022/09/05 01:58:20;;;;;;;7.83;6.87;;;;;;;;;;4972493;28;20992;-50
2022/09/05 02:00:59;;;;;;;6.83;6.20;;;;;;;;;;4972827;28;20407;-50
2022/09/05 02:03:31;;;;;;;7.63;6.93;;;;;;;;;;4972506;28;20405;-50
2022/09/05 02:06:08;;;;;;;9.13;7.50;;;;;;;;;;4972842;28;20867;-51
2022/09/05 02:08:40;;;;;;;12.07;7.47;;;;;;;;;;4972711;28;20415;-58
2022/09/05 02:11:09;;;;;;;8.97;8.13;;;;;;;;;;4971905;28;20468;-51
2022/09/05 02:13:35;;;;;;;9.60;8.60;;;;;;;;;;4976240;28;20964;-51
2022/09/05 02:16:04;;;;;;;13.47;9.27;;;;;;;;;;4976686;28;20394;-50
2022/09/05 02:18:43;;;;;;;9.67;8.53;;;;;;;;;;4976118;28;20413;-50
2022/09/05 02:21:13;;;;;;;10.50;9.00;;;;;;;;;;4975224;28;20478;-50
2022/09/05 02:23:39;;;;;;;12.30;9.93;;;;;;;;;;4976025;28;20412;-50
2022/09/05 02:26:08;;;;;;;9.60;7.70;;;;;;;;;;4976524;28;20451;-50
2022/09/05 02:28:49;;;;;;;10.17;7.70;;;;;;;;;;4975918;28;20405;-53
2022/09/05 02:31:33;;;;;;;9.80;8.20;;;;;;;;;;4974091;28;20453;-50
2022/09/05 02:34:25;;;;;;;9.73;7.93;;;;;;;;;;4975169;28;20407;-53
2022/09/05 02:37:09;;;;;;;11.87;8.57;;;;;;;;;;4976318;28;20494;-50
2022/09/05 02:39:39;;;;;;;9.93;8.93;;;;;;;;;;4975460;28;20403;-51
2022/09/05 02:42:32;;;;;;;9.00;8.20;;;;;;;;;;4976339;28;20598;-50
2022/09/05 02:45:00;;;;;;;8.83;8.03;;;;;;;;;;4958898;28;20423;-53
2022/09/05 02:47:41;;;;;;;10.67;7.73;;;;;;;;;;4975945;28;20467;-50
2022/09/05 02:50:19;;;;;;;7.70;7.00;;;;;;;;;;4975908;28;20446;-50
2022/09/05 02:52:46;;;;;;;6.97;6.37;;;;;;;;;;4976135;28;20490;-50
2022/09/05 02:55:32;;;;;;;7.50;6.80;;;;;;;;;;4976048;28;20424;-50
2022/09/05 02:58:17;;;;;;;14.03;6.80;;;;;;;;;;4976434;28;20435;-50
2022/09/05 03:00:46;;;;;;;7.17;6.60;;;;;;;;;;4976134;28;20382;-50
2022/09/05 03:03:17;;;;;;;6.33;5.83;;;;;;;;;;4976133;28;20434;-50
2022/09/05 03:05:49;;;;;;;6.70;6.00;;;;;;;;;;4976013;28;20410;-50
2022/09/05 03:08:17;;;;;;;7.83;6.80;;;;;;;;;;4975611;28;20891;-50
2022/09/05 03:10:59;;;;;;;8.80;7.27;;;;;;;;;;4975383;28;20539;-52
2022/09/05 03:13:44;;;;;;;7.40;6.70;;;;;;;;;;4975920;28;20491;-50
2022/09/05 03:16:10;;;;;;;7.70;6.97;;;;;;;;;;4975628;28;20491;-53
2022/09/05 03:18:54;;;;;;;6.60;6.10;;;;;;;;;;4975418;28;20992;-50
2022/09/05 03:21:21;;;;;;;11.80;8.60;;;;;;;;;;4975569;28;20440;-52
2022/09/05 03:24:06;;;;;;;9.67;6.40;;;;;;;;;;4975146;28;20391;-50
2022/09/05 03:26:34;;;;;;;7.03;6.43;;;;;;;;;;4975716;28;20428;-52
2022/09/05 03:29:27;;;;;;;7.50;6.70;;;;;;;;;;4975190;28;20836;-52
2022/09/05 03:31:53;;;;;;;7.57;5.60;;;;;;;;;;4975426;28;20494;-52
2022/09/05 03:34:19;;;;;;;6.03;5.33;;;;;;;;;;4975443;28;20446;-52
2022/09/05 03:36:45;;;;;;;6.37;5.67;;;;;;;;;;4975148;28;20448;-52
2022/09/05 03:39:30;;;;;;;6.03;5.53;;;;;;;;;;4975055;28;20416;-51
2022/09/05 03:41:58;;;;;;;6.30;5.70;;;;;;;;;;4975156;28;20386;-52
2022/09/05 03:44:27;;;;;;;7.40;5.40;;;;;;;;;;4975345;28;20387;-52
2022/09/05 03:46:59;;;;;;;6.17;5.67;;;;;;;;;;4975078;28;20506;-52
2022/09/05 03:49:28;;;;;;;5.43;5.03;;;;;;;;;;4974881;28;20885;-52
2022/09/05 03:51:57;;;;;;;5.33;4.83;;;;;;;;;;4973097;28;20472;-52
2022/09/05 03:54:44;;;;;;;5.87;5.27;;;;;;;;;;4974479;28;20417;-52
2022/09/05 03:57:34;;;;;;;6.10;5.47;;;;;;;;;;4972387;28;20436;-52
2022/09/05 04:00:08;;;;;;;6.50;6.00;;;;;;;;;;4974823;28;20412;-52
2022/09/05 04:02:49;;;;;;;9.40;6.23;;;;;;;;;;4973788;28;20433;-52
2022/09/05 04:05:19;;;;;;;7.53;6.20;;;;;;;;;;4974820;28;20783;-52
2022/09/05 04:07:47;;;;;;;7.97;6.50;;;;;;;;;;4974562;28;20403;-51
2022/09/05 04:10:22;;;;;;;7.70;7.00;;;;;;;;;;4974538;28;20456;-52
2022/09/05 04:13:09;;;;;;;9.80;7.13;;;;;;;;;;4974636;28;20423;-51
2022/09/05 04:15:40;;;;;;;10.97;7.90;;;;;;;;;;4954155;28;20424;-51
2022/09/05 04:18:19;;;;;;;10.60;7.10;;;;;;;;;;4973710;28;20445;-52
2022/09/05 04:21:00;;;;;;;9.30;8.37;;;;;;;;;;4973973;28;20404;-52
2022/09/05 04:23:47;;;;;;;10.43;9.33;;;;;;;;;;4974427;28;20404;-52
2022/09/05 04:26:16;;;;;;;14.30;9.07;;;;;;;;;;4974408;28;20428;-52
2022/09/05 04:28:53;;;;;;;12.30;8.70;;;;;;;;;;4974267;28;20412;-52
2022/09/05 04:31:23;;;;;;;9.23;7.63;;;;;;;;;;4974323;28;20455;-52
2022/09/05 04:34:03;;;;;;;7.67;6.90;;;;;;;;;;4973426;28;20934;-52
2022/09/05 04:36:33;;;;;;;11.27;7.67;;;;;;;;;;4974189;28;20772;-51
2022/09/05 04:39:07;;;;;;;8.70;7.50;;;;;;;;;;4972907;28;20410;-51
2022/09/05 04:41:34;;;;;;;11.60;7.90;;;;;;;;;;4973650;28;20870;-52
2022/09/05 04:44:02;;;;;;;12.73;7.67;;;;;;;;;;4974116;28;20886;-52
2022/09/05 04:46:38;;;;;;;8.97;7.13;;;;;;;;;;4974000;28;20431;-52
2022/09/05 04:49:12;;;;;;;6.83;6.03;;;;;;;;;;4973751;28;20411;-51
2022/09/05 04:51:58;;;;;;;12.13;7.23;;;;;;;;;;4973874;28;20456;-52
2022/09/05 04:54:28;;;;;;;11.13;6.50;;;;;;;;;;4973972;28;20403;-52
2022/09/05 04:57:03;;;;;;;10.17;7.07;;;;;;;;;;4973711;28;20798;-52
2022/09/05 04:59:32;;;;;;;5.63;4.83;;;;;;;;;;4973564;28;20454;-51
2022/09/05 05:02:00;;;;;;;7.23;5.80;;;;;;;;;;4972997;28;20414;-51
2022/09/05 05:04:26;;;;;;;5.10;4.80;;;;;;;;;;4973298;28;20655;-52
2022/09/05 05:07:07;;;;;;;5.07;4.70;;;;;;;;;;4973573;28;20433;-52
2022/09/05 05:09:38;;;;;;;4.57;4.17;;;;;;;;;;4973199;28;20860;-51
2022/09/05 05:12:23;;;;;;;4.77;4.37;;;;;;;;;;4973575;28;20538;-52
2022/09/05 05:14:59;;;;;;;4.60;4.20;;;;;;;;;;4973616;28;20397;-52
2022/09/05 05:17:38;;;;;;;4.90;3.97;;;;;;;;;;4973508;28;20420;-52
2022/09/05 05:20:19;;;;;;;5.07;4.77;;;;;;;;;;4973197;28;20375;-51
2022/09/05 05:22:48;;;;;;;4.20;3.90;;;;;;;;;;4972881;28;20409;-52
2022/09/05 05:25:14;;;;;;;5.50;5.00;;;;;;;;;;4973487;28;20436;-52
2022/09/05 05:27:40;;;;;;;6.20;5.60;;;;;;;;;;4971159;28;20611;-52
2022/09/05 05:30:10;;;;;;;7.73;5.77;;;;;;;;;;4972391;28;20923;-52
2022/09/05 05:32:36;;;;;;;6.90;6.20;;;;;;;;;;4973237;28;20456;-52
2022/09/05 05:35:07;;;;;;;9.83;6.07;;;;;;;;;;4972224;28;20875;-50
2022/09/05 05:37:36;;;;;;;7.40;6.50;;;;;;;;;;4966440;28;20499;-50
2022/09/05 05:40:14;;;;;;;7.27;5.80;;;;;;;;;;4972135;28;20437;-50
2022/09/05 05:42:41;;;;;;;6.37;5.13;;;;;;;;;;4972417;28;20486;-51
2022/09/05 05:45:18;;;;;;;6.93;5.97;;;;;;;;;;4969862;28;20429;-50
2022/09/05 05:47:46;;;;;;;5.67;5.00;;;;;;;;;;4973116;28;20449;-49
2022/09/05 05:50:24;;;;;;;5.73;5.23;;;;;;;;;;4972610;28;20459;-50
2022/09/05 05:52:53;;;;;;;5.47;4.90;;;;;;;;;;4972564;28;20468;-49
2022/09/05 05:55:31;;;;;;;5.53;4.50;;;;;;;;;;4972771;28;20780;-52
2022/09/05 05:58:06;;;;;;;5.97;5.27;;;;;;;;;;4971457;28;20419;-51
2022/09/05 06:00:32;;;;;;;5.40;5.00;;;;;;;;;;4971900;28;20455;-51
2022/09/05 06:03:01;;;;;;;7.30;5.40;;;;;;;;;;4973385;28;20406;-52
2022/09/05 06:05:34;;;;;;;5.60;5.10;;;;;;;;;;4972294;28;20410;-53
2022/09/05 06:08:09;;;;;;;7.53;6.83;;;;;;;;;;4972483;28;20500;-52
2022/09/05 06:10:54;;;;;;;5.50;5.00;;;;;;;;;;4971297;28;20392;-50
2022/09/05 06:13:39;;;;;;;6.93;6.10;;;;;;;;;;4971134;28;20938;-53
2022/09/05 06:16:23;;;;;;;6.13;5.57;;;;;;;;;;4971765;28;20863;-52
2022/09/05 06:18:49;;;;;;;12.37;7.20;;;;;;;;;;4971765;28;20922;-51
2022/09/05 06:21:18;;;;;;;14.50;7.73;;;;;;;;;;4972130;28;20484;-52
2022/09/05 06:23:47;;;;;;;8.87;7.30;;;;;;;;;;4973119;28;20419;-52
2022/09/05 06:26:13;;;;;;;17.00;8.20;;;;;;;;;;4966834;28;20432;-52
2022/09/05 06:28:45;;;;;;;9.43;6.70;;;;;;;;;;4955464;28;20800;-52
2022/09/05 06:31:18;;;;;;;10.20;7.20;;;;;;;;;;4972675;28;20446;-52
2022/09/05 06:34:03;;;;;;;10.80;7.30;;;;;;;;;;4972794;28;20924;-51
2022/09/05 06:36:32;;;;;;;12.70;6.93;;;;;;;;;;4972041;28;20487;-51
2022/09/05 06:39:03;;;;;;;10.37;6.70;;;;;;;;;;4970770;28;20827;-52
2022/09/05 06:41:38;;;;;;;9.63;6.07;;;;;;;;;;4971503;28;20432;-51
2022/09/05 06:44:14;;;;;;;6.60;5.17;;;;;;;;;;4971934;28;20445;-51
2022/09/05 06:46:41;;;;;;;6.80;6.10;;;;;;;;;;4972554;28;20429;-52
2022/09/05 06:49:16;;;;;;;14.17;4.97;;;;;;;;;;4953318;29;20413;-52
2022/09/05 06:51:51;;;;;;;6.60;5.50;;;;;;;;;;4953192;29;21054;-53
2022/09/05 06:54:36;;;;;;;5.60;5.00;;;;;;;;;;4953827;29;20703;-52
2022/09/05 06:57:17;;;;;;;5.10;4.60;;;;;;;;;;4954303;28;20419;-51
2022/09/05 06:59:59;;;;;;;6.37;5.77;;;;;;;;;;4969216;28;20433;-51
2022/09/05 07:02:38;;;;;;;7.43;5.30;;;;;;;;;;4976970;28;20404;-51
2022/09/05 07:05:22;;;;;;;4.70;4.30;;;;;;;;;;4977013;28;20424;-51
2022/09/05 07:07:48;;;;;;;5.10;4.70;;;;;;;;;;4976888;28;20436;-51
2022/09/05 07:10:14;;;;;;;5.27;4.27;;;;;;;;;;4976723;28;20416;-51
2022/09/05 07:12:48;;;;;;;5.13;4.30;;;;;;;;;;4977098;28;20456;-51
2022/09/05 07:15:20;;;;;;;5.00;4.30;;;;;;;;;;4976747;28;20827;-53
2022/09/05 07:17:56;;;;;;;6.83;4.47;;;;;;;;;;4963679;28;20539;-52
2022/09/05 07:20:25;;;;;;;4.70;4.30;;;;;;;;;;4976860;28;20790;-54
2022/09/05 07:22:58;;;;;;;5.20;4.47;;;;;;;;;;4976335;28;20523;-52
2022/09/05 07:25:29;;;;;;;8.30;4.77;;;;;;;;;;4963237;28;20421;-52
2022/09/05 07:28:09;;;;;;;7.43;4.67;;;;;;;;;;4976591;28;20500;-51
2022/09/05 07:30:37;;;;;;;6.33;4.70;;;;;;;;;;4975890;28;20424;-52
2022/09/05 07:33:03;;;;;;;7.43;3.60;;;;;;;;;;4975545;28;20468;-52
2022/09/05 07:35:31;;;;;;;7.57;3.80;;;;;;;;;;4976155;28;20893;-53
2022/09/05 07:38:08;;;;;;;5.47;3.53;;;;;;;;;;4966755;28;20992;-52
2022/09/05 07:40:38;;;;;;;8.53;4.03;;;;;;;;;;4969796;28;20467;-52
2022/09/05 07:43:07;;;;;;;6.63;4.30;;;;;;;;;;4975850;28;20920;-53
2022/09/05 07:45:35;;;;;;;7.07;4.23;;;;;;;;;;4975502;28;20915;-51
2022/09/05 07:48:07;;;;;;;11.33;4.40;;;;;;;;;;4975506;28;20467;-53
2022/09/05 07:50:44;;;;;;;5.63;3.30;;;;;;;;;;4974487;28;20448;-52
2022/09/05 07:53:11;;;;;;;3.53;3.20;;;;;;;;;;4974666;28;20463;-52
2022/09/05 07:55:40;;;;;;;4.30;3.67;;;;;;;;;;4974967;28;20512;-52
2022/09/05 07:58:07;;;;;;;6.00;3.13;;;;;;;;;;4974468;28;20818;-52
2022/09/05 08:00:35;;;;;;;6.20;2.90;;;;;;;;;;4973084;28;20460;-52
2022/09/05 08:03:11;;;;;;;10.13;2.90;;;;;;;;;;4975176;28;20409;-52
2022/09/05 08:05:40;;;;;;;4.27;3.03;;;;;;;;;;4974241;28;20417;-52
2022/09/05 08:08:09;;;;;;;4.00;3.30;;;;;;;;;;4974085;28;20429;-52
2022/09/05 08:10:58;;;;;;;6.57;2.73;;;;;;;;;;4972406;28;20413;-52
2022/09/05 08:13:47;;;;;;;2.80;2.60;;;;;;;;;;4966561;28;20428;-52
2022/09/05 08:16:16;;;;;;;3.27;2.97;;;;;;;;;;4964087;28;20413;-54
2022/09/05 08:18:44;;;;;;;3.30;3.00;;;;;;;;;;4974055;28;20425;-51
2022/09/05 08:21:12;;;;;;;3.77;3.03;;;;;;;;;;4974925;28;20417;-53
2022/09/05 08:23:57;;;;;;;8.67;5.93;;;;;;;;;;4959678;28;20791;-54
2022/09/05 08:26:29;;;;;;;4.73;3.27;;;;;;;;;;4975138;28;20437;-53
2022/09/05 08:29:07;;;;;;;3.97;3.67;;;;;;;;;;4973726;28;20428;-53
2022/09/05 08:31:46;;;;;;;5.90;3.60;;;;;;;;;;4975150;28;20478;-52
2022/09/05 08:34:17;;;;;;;3.57;3.23;;;;;;;;;;4975327;28;20416;-55
2022/09/05 08:36:48;;;;;;;12.80;7.07;;;;;;;;;;4974682;28;20453;-54
2022/09/05 08:39:21;;;;;;;8.10;4.00;;;;;;;;;;4975104;28;20768;-53
2022/09/05 08:41:59;;;;;;;3.33;3.03;;;;;;;;;;4974986;28;20453;-54
2022/09/05 08:44:40;;;;;;;4.97;4.37;;;;;;;;;;4955716;29;20497;-53
2022/09/05 08:47:19;;;;;;;11.03;8.50;;;;;;;;;;4970713;28;20535;-54
2022/09/05 08:49:44;;;;;;;7.53;5.70;;;;;;;;;;4974390;28;20400;-54
2022/09/05 08:52:14;;;;;;;3.10;2.83;;;;;;;;;;4973984;28;20463;-50
2022/09/05 08:54:42;;;;;;;4.03;2.60;;;;;;;;;;4973312;28;20777;-51
2022/09/05 08:57:17;;;;;;;2.63;2.43;;;;;;;;;;4973293;28;20441;-50
2022/09/05 08:59:46;;;;;;;5.93;2.40;;;;;;;;;;4971318;28;20432;-51
2022/09/05 09:02:33;;;;;;;8.27;3.57;;;;;;;;;;4973291;28;20428;-50
2022/09/05 09:05:17;;;;;;;3.83;2.03;;;;;;;;;;4971796;28;20796;-50
2022/09/05 09:07:59;;;;;;;2.23;2.03;;;;;;;;;;4971917;28;20487;-50
2022/09/05 09:10:28;;;;;;;3.03;2.70;;;;;;;;;;4973204;28;21003;-53
2022/09/05 09:12:57;;;;;;;2.00;1.80;;;;;;;;;;4973222;28;20469;-50
2022/09/05 09:15:53;;;;;;;1.80;1.70;;;;;;;;;;4973171;28;20528;-50
2022/09/05 09:18:20;;;;;;;2.30;1.87;;;;;;;;;;4973226;28;20416;-49
2022/09/05 09:21:21;;;;;;;2.27;2.07;;;;;;;;;;4972445;28;20790;-53
2022/09/05 09:23:52;;;;;;;2.10;1.70;;;;;;;;;;4972837;28;20460;-53
2022/09/05 09:26:20;;;;;;;2.30;2.10;;;;;;;;;;4972599;28;20437;-53
2022/09/05 09:28:46;;;;;;;1.60;1.50;;;;;;;;;;4971408;28;20429;-53
2022/09/05 09:31:21;;;;;;;3.17;1.90;;;;;;;;;;4973153;28;20547;-53
2022/09/05 09:34:05;;;;;;;2.43;2.13;;;;;;;;;;4973289;28;20404;-53
2022/09/05 09:36:43;;;;;;;3.37;1.93;;;;;;;;;;4964779;28;20524;-53
2022/09/05 09:39:28;;;;;;;1.87;1.77;;;;;;;;;;4970612;28;20797;-53
2022/09/05 09:42:00;;;;;;;5.03;1.90;;;;;;;;;;4971590;28;20412;-53
2022/09/05 09:44:45;;;;;;;3.60;2.10;;;;;;;;;;4972294;28;20416;-53
2022/09/05 09:47:13;;;;;;;2.00;1.70;;;;;;;;;;4972019;28;20432;-53
2022/09/05 09:49:46;;;;;;;2.60;1.77;;;;;;;;;;4972499;28;20804;-52
2022/09/05 09:52:23;;;;;;;2.07;1.70;;;;;;;;;;4972612;28;20480;-53
2022/09/05 09:54:52;;;;;;;2.50;1.93;;;;;;;;;;4972736;28;20985;-52
2022/09/05 09:57:18;;;;;;;6.03;1.80;;;;;;;;;;4972681;28;20433;-53
2022/09/05 10:00:01;;;;;;;3.30;1.60;;;;;;;;;;4972493;28;20415;-52
2022/09/05 10:02:47;;;;;;;6.03;1.70;;;;;;;;;;4972675;28;20204;-52
2022/09/05 10:05:16;;;;;;;2.07;1.83;;;;;;;;;;4972637;28;20401;-53
2022/09/05 10:08:01;;;;;;;2.40;2.20;;;;;;;;;;4972388;28;20429;-52
2022/09/05 10:10:45;;;;;;;1.70;1.60;;;;;;;;;;4972884;28;20597;-52
2022/09/05 10:13:23;;;;;;;2.70;2.50;;;;;;;;;;4972523;28;20452;-53
2022/09/05 10:16:04;;;;;;;2.13;2.03;;;;;;;;;;4970924;28;20435;-52
2022/09/05 10:18:30;;;;;;;2.50;1.90;;;;;;;;;;4971485;28;20475;-52
2022/09/05 10:21:23;;;;;;;2.30;2.10;;;;;;;;;;4972680;28;20909;-52
2022/09/05 10:24:14;;;;;;;2.10;1.90;;;;;;;;;;4934869;28;20786;-51
2022/09/05 10:26:47;;;;;;;2.20;2.00;;;;;;;;;;4964670;28;20476;-52
2022/09/05 10:29:19;;;;;;;2.27;2.03;;;;;;;;;;4971243;28;20917;-52
2022/09/05 10:31:58;;;;;;;1.93;1.83;;;;;;;;;;4971149;28;20441;-52
2022/09/05 10:34:25;;;;;;;2.93;2.50;;;;;;;;;;4976183;28;20417;-52
2022/09/05 10:36:53;;;;;;;3.00;2.30;;;;;;;;;;4976130;28;20444;-52
2022/09/05 10:39:19;;;;;;;2.67;2.30;;;;;;;;;;4975681;28;20864;-53
2022/09/05 10:41:54;;;;;;;2.40;2.20;;;;;;;;;;4974828;28;20990;-53
2022/09/05 10:44:39;;;;;;;1.90;1.80;;;;;;;;;;4974803;28;20565;-52
2022/09/05 10:47:30;;;;;;;3.33;1.90;;;;;;;;;;4975069;28;20447;-52
2022/09/05 10:50:02;;;;;;;2.00;1.90;;;;;;;;;;4975596;28;20417;-50
2022/09/05 10:55:35;;;;;;;2.23;1.90;;;;;;;;;;5992330;23;20336;-57
2022/09/05 10:58:16;;;;;;;2.83;1.70;;;;;;;;;;4987422;28;20452;-49
2022/09/05 11:00:55;;;;;;;2.73;1.57;;;;;;;;;;4975686;28;20425;-49
2022/09/05 11:03:22;;;;;;;2.03;1.50;;;;;;;;;;4976207;28;20453;-50
2022/09/05 11:05:55;;;;;;;2.30;1.80;;;;;;;;;;4975265;28;20428;-49
2022/09/05 11:08:25;;;;;;;3.87;1.60;;;;;;;;;;4974031;28;20942;-49
2022/09/05 11:10:56;;;;;;;2.77;1.53;;;;;;;;;;4974249;28;20956;-47
2022/09/05 11:13:41;;;;;;;3.20;1.73;;;;;;;;;;4973422;28;20904;-48
2022/09/05 11:16:18;;;;;;;2.37;1.80;;;;;;;;;;4973959;28;20436;-48
2022/09/05 11:18:47;;;;;;;1.50;1.40;;;;;;;;;;4956116;29;20894;-48
2022/09/05 11:21:22;;;;;;;1.80;1.70;;;;;;;;;;4970691;28;20421;-48
2022/09/05 11:23:56;;;;;;;2.07;1.43;;;;;;;;;;4972855;28;20806;-49
2022/09/05 11:26:22;;;;;;;1.87;1.70;;;;;;;;;;4974391;28;21007;-46
2022/09/05 11:28:55;;;;;;;1.97;1.70;;;;;;;;;;4975077;28;20492;-47
2022/09/05 11:31:23;;;;;;;1.73;1.50;;;;;;;;;;4974747;28;20205;-47
2022/09/05 11:34:08;;;;;;;4.40;1.73;;;;;;;;;;4974251;28;20433;-47
2022/09/05 11:36:46;;;;;;;2.33;1.70;;;;;;;;;;4972882;28;20441;-48
2022/09/05 11:39:24;;;;;;;4.70;1.60;;;;;;;;;;4973700;28;20549;-50
2022/09/05 11:42:05;;;;;;;2.23;1.60;;;;;;;;;;4974294;28;20412;-47
2022/09/05 11:44:47;;;;;;;1.60;1.50;;;;;;;;;;4974707;28;20411;-47
2022/09/05 11:47:14;;;;;;;2.73;1.67;;;;;;;;;;4971475;28;20471;-47
2022/09/05 11:49:52;;;;;;;2.00;1.80;;;;;;;;;;4974921;28;21228;-46
2022/09/05 11:52:20;;;;;;;1.70;1.57;;;;;;;;;;4961214;28;20468;-46
2022/09/05 11:55:04;;;;;;;3.50;1.50;;;;;;;;;;4974641;28;20922;-47
2022/09/05 11:57:37;;;;;;;3.27;1.80;;;;;;;;;;4974710;28;20401;-45
2022/09/05 12:00:18;;;;;;;1.53;1.43;;;;;;;;;;4973786;28;20436;-49
2022/09/05 12:03:04;;;;;;;1.50;1.40;;;;;;;;;;4974399;28;20535;-46
2022/09/05 12:05:30;;;;;;;2.30;1.63;;;;;;;;;;4974123;28;20420;-46
2022/09/05 12:08:02;;;;;;;2.00;1.90;;;;;;;;;;4974651;28;20931;-46
2022/09/05 12:10:40;;;;;;;5.93;1.47;;;;;;;;;;4973819;28;20208;-47
2022/09/05 12:13:15;;;;;;;1.70;1.60;;;;;;;;;;4974595;28;20936;-46
2022/09/05 12:15:45;;;;;;;1.37;1.27;;;;;;;;;;4973961;28;20425;-46
2022/09/05 12:18:20;;;;;;;1.70;1.60;;;;;;;;;;4970233;28;20412;-46
2022/09/05 12:21:24;;;;;;;2.30;1.60;;;;;;;;;;4970077;28;20405;-50
2022/09/05 12:24:02;;;;;;;2.37;1.40;;;;;;;;;;4914680;29;20530;-46
2022/09/05 12:26:41;;;;;;;3.90;1.43;;;;;;;;;;4914132;29;20506;-46
2022/09/05 12:29:09;;;;;;;9.00;2.10;;;;;;;;;;4952815;28;20492;-46
2022/09/05 12:31:44;;;;;;;5.93;2.30;;;;;;;;;;4974380;28;20456;-46
2022/09/05 12:34:17;;;;;;;5.37;2.07;;;;;;;;;;4974275;28;20413;-46
2022/09/05 12:36:44;;;;;;;2.23;1.60;;;;;;;;;;4973715;28;20417;-46
2022/09/05 12:39:20;;;;;;;2.40;1.60;;;;;;;;;;4973937;28;20413;-46
2022/09/05 12:41:47;;;;;;;3.50;1.47;;;;;;;;;;4974053;28;20400;-46
2022/09/05 12:44:19;;;;;;;1.57;1.47;;;;;;;;;;4974121;28;20406;-48
2022/09/05 12:46:54;;;;;;;1.87;1.77;;;;;;;;;;4973486;28;20847;-47
2022/09/05 12:49:41;;;;;;;2.80;1.40;;;;;;;;;;4973914;28;20408;-45
2022/09/05 12:52:32;;;;;;;1.70;1.60;;;;;;;;;;4974144;28;21171;-49
2022/09/05 12:55:04;;;;;;;1.43;1.33;;;;;;;;;;4964453;28;20510;-46
2022/09/05 12:57:34;;;;;;;1.50;1.20;;;;;;;;;;4974128;28;20813;-46
2022/09/05 13:00:22;;;;;;;2.23;1.53;;;;;;;;;;4973176;28;20416;-47
2022/09/05 13:03:00;;;;;;;1.73;1.63;;;;;;;;;;4974002;28;20410;-46
2022/09/05 13:05:44;;;;;;;3.00;1.70;;;;;;;;;;4973153;28;20464;-49
2022/09/05 13:08:20;;;;;;;1.67;1.40;;;;;;;;;;4973447;28;20484;-49
2022/09/05 13:10:48;;;;;;;1.83;1.30;;;;;;;;;;4972795;28;20468;-46
2022/09/05 13:13:19;;;;;;;1.80;1.60;;;;;;;;;;4973478;28;20421;-46
2022/09/05 13:15:49;;;;;;;1.67;1.57;;;;;;;;;;4973029;28;20532;-45
2022/09/05 13:18:21;;;;;;;2.00;1.50;;;;;;;;;;4973230;28;20413;-48
2022/09/05 13:20:57;;;;;;;3.03;1.80;;;;;;;;;;4973400;28;20456;-46
2022/09/05 13:23:47;;;;;;;1.30;1.20;;;;;;;;;;4973393;28;20824;-46
2022/09/05 13:26:16;;;;;;;3.60;1.67;;;;;;;;;;4950010;29;20524;-46
2022/09/05 13:28:51;;;;;;;1.60;1.50;;;;;;;;;;4953705;29;20494;-48
2022/09/05 13:31:35;;;;;;;1.73;1.63;;;;;;;;;;4953947;29;20460;-46
2022/09/05 13:34:04;;;;;;;1.77;1.60;;;;;;;;;;4952585;29;20417;-46
2022/09/05 13:36:31;;;;;;;1.80;1.70;;;;;;;;;;4957298;28;20972;-47
2022/09/05 13:39:00;;;;;;;5.37;1.50;;;;;;;;;;4972957;28;20476;-45
2022/09/05 13:41:28;;;;;;;2.80;1.33;;;;;;;;;;4973044;28;20472;-45
2022/09/05 13:43:55;;;;;;;1.87;1.70;;;;;;;;;;4973245;28;20826;-46
2022/09/05 13:46:27;;;;;;;1.60;1.50;;;;;;;;;;4972134;28;20843;-48
2022/09/05 13:49:10;;;;;;;2.33;1.50;;;;;;;;;;4972731;28;20405;-45
2022/09/05 13:51:59;;;;;;;1.40;1.30;;;;;;;;;;4972939;28;20460;-48
2022/09/05 13:54:35;;;;;;;6.93;1.80;;;;;;;;;;4973327;28;20433;-44
2022/09/05 13:57:20;;;;;;;2.80;1.43;;;;;;;;;;4971978;28;20958;-46
2022/09/05 14:00:05;;;;;;;1.60;1.43;;;;;;;;;;4972544;28;20409;-48
2022/09/05 14:02:49;;;;;;;1.50;1.40;;;;;;;;;;4972952;28;20420;-46
2022/09/05 14:05:16;;;;;;;2.83;2.10;;;;;;;;;;4951542;29;20432;-48
2022/09/05 14:07:43;;;;;;;1.70;1.30;;;;;;;;;;4956500;28;20503;-49
2022/09/05 14:10:20;;;;;;;1.83;1.60;;;;;;;;;;4957414;29;20414;-46
2022/09/05 14:12:49;;;;;;;1.63;1.53;;;;;;;;;;4957296;29;20460;-47
2022/09/05 14:15:15;;;;;;;1.60;1.50;;;;;;;;;;4956392;29;20430;-46
2022/09/05 14:18:04;;;;;;;4.33;1.47;;;;;;;;;;4957045;29;20740;-46
2022/09/05 14:23:20;;;;;;;3.10;1.70;;;;;;;;;;4957466;29;20412;-49
2022/09/05 14:25:53;;;;;;;1.90;1.67;;;;;;;;;;4956690;29;20429;-51
2022/09/05 14:28:30;;;;;;;1.50;1.40;;;;;;;;;;4956921;29;20420;-46
2022/09/05 14:31:05;;;;;;;1.60;1.50;;;;;;;;;;4957122;29;20412;-46
2022/09/05 14:33:38;;;;;;;1.80;1.50;;;;;;;;;;4957022;29;20412;-46
2022/09/05 14:36:16;;;;;;;2.03;1.90;;;;;;;;;;4955863;29;20428;-46
2022/09/05 14:38:59;;;;;;;1.70;1.60;;;;;;;;;;4970719;28;20445;-47
2022/09/05 14:41:44;;;;;;;2.13;1.40;;;;;;;;;;4976025;28;20409;-46
2022/09/05 14:44:12;;;;;;;3.60;2.10;;;;;;;;;;4975713;28;20782;-46
2022/09/05 14:47:09;;;;;;;2.03;1.60;;;;;;;;;;4974915;28;20483;-47
2022/09/05 14:49:41;;;;;;;5.07;1.53;;;;;;;;;;4923505;28;20423;-47
2022/09/05 14:52:24;;;;;;;1.70;1.60;;;;;;;;;;4976082;28;20514;-46
2022/09/05 14:54:51;;;;;;;3.10;1.40;;;;;;;;;;4974917;28;20421;-55
2022/09/05 14:57:19;;;;;;;1.50;1.40;;;;;;;;;;4975063;28;20768;-46
2022/09/05 14:59:48;;;;;;;2.60;1.73;;;;;;;;;;4975886;28;20405;-49
2022/09/05 15:02:20;;;;;;;1.60;1.50;;;;;;;;;;4975915;28;20405;-46
2022/09/05 15:04:47;;;;;;;1.70;1.60;;;;;;;;;;4972655;28;20919;-46
2022/09/05 15:07:13;;;;;;;1.50;1.40;;;;;;;;;;4975740;28;20432;-46
2022/09/05 15:09:39;;;;;;;2.90;1.53;;;;;;;;;;4974364;28;20407;-46
2022/09/05 15:12:13;;;;;;;3.30;1.87;;;;;;;;;;4974795;28;20591;-45
2022/09/05 15:14:43;;;;;;;2.43;1.87;;;;;;;;;;4975843;28;20417;-46
2022/09/05 15:17:10;;;;;;;1.80;1.70;;;;;;;;;;4973381;28;20529;-47
2022/09/05 15:19:48;;;;;;;2.00;1.80;;;;;;;;;;4974580;28;20811;-46
2022/09/05 15:22:19;;;;;;;3.10;2.00;;;;;;;;;;4975646;28;20401;-46
2022/09/05 15:24:59;;;;;;;1.70;1.60;;;;;;;;;;4974740;28;20428;-48
2022/09/05 15:27:27;;;;;;;3.00;1.70;;;;;;;;;;4973671;28;20429;-47
2022/09/05 15:29:54;;;;;;;1.97;1.83;;;;;;;;;;4974951;28;20464;-45
2022/09/05 15:32:25;;;;;;;2.00;1.90;;;;;;;;;;4975302;28;20456;-47